createdAt,value
2022-12-18T00:01:20.807Z,99752.09
2022-12-18T00:03:48.110Z,99759.91
2022-12-18T00:06:15.581Z,99764.22
2022-12-18T00:08:43.621Z,99762.47
2022-12-18T00:11:14.092Z,99765.91
2022-12-18T00:13:41.714Z,99758.97
2022-12-18T00:16:12.533Z,99768.47
2022-12-18T00:18:40.737Z,99769.31
2022-12-18T00:21:09.808Z,99774.56
2022-12-18T00:23:40.117Z,99772.84
2022-12-18T00:26:11.258Z,99779.81
2022-12-18T00:28:38.010Z,99785.00
2022-12-18T00:31:07.458Z,99791.94
2022-12-18T00:33:34.943Z,99791.06
2022-12-18T00:36:07.447Z,99792.72
2022-12-18T00:38:35.262Z,99793.63
2022-12-18T00:41:02.222Z,99792.75
2022-12-18T00:43:29.088Z,99800.59
2022-12-18T00:45:56.167Z,99800.59
2022-12-18T00:48:23.152Z,99810.97
2022-12-18T00:50:50.737Z,99806.56
2022-12-18T00:53:18.347Z,99809.19
2022-12-18T00:55:46.102Z,99814.44
2022-12-18T00:58:15.240Z,99815.28
2022-12-18T01:00:42.911Z,99817.91
2022-12-18T01:03:14.733Z,99813.50
2022-12-18T01:05:44.411Z,99823.88
2022-12-18T01:08:11.939Z,99816.97
2022-12-18T01:10:41.815Z,99819.53
2022-12-18T01:13:08.890Z,99824.66
2022-12-18T01:15:35.990Z,99831.66
2022-12-18T01:18:02.831Z,99833.41
2022-12-18T01:20:29.554Z,99831.69
2022-12-18T01:22:56.296Z,99840.34
2022-12-18T01:25:23.032Z,99826.47
2022-12-18T01:27:51.061Z,99841.19
2022-12-18T01:30:17.916Z,99843.78
2022-12-18T01:32:45.779Z,99854.97
2022-12-18T01:35:12.466Z,99853.22
2022-12-18T01:37:39.283Z,99849.81
2022-12-18T01:40:06.813Z,99854.13
2022-12-18T01:42:33.550Z,99852.41
2022-12-18T01:45:06.445Z,99849.84
2022-12-18T01:47:42.479Z,99844.63
2022-12-18T01:50:14.666Z,99845.50
2022-12-18T01:52:49.851Z,99856.72
2022-12-18T01:55:20.332Z,99856.69
2022-12-18T01:57:48.326Z,99854.94
2022-12-18T02:00:18.941Z,99866.22
2022-12-18T02:02:47.510Z,99872.22
2022-12-18T02:05:19.227Z,99874.81
2022-12-18T02:08:04.706Z,99872.25
2022-12-18T02:10:43.782Z,99872.19
2022-12-18T02:13:36.233Z,99879.13
2022-12-18T02:16:13.315Z,99885.22
2022-12-18T02:18:46.391Z,99878.25
2022-12-18T02:21:46.598Z,99887.78
2022-12-18T02:24:29.225Z,99890.41
2022-12-18T02:27:06.630Z,99899.06
2022-12-18T02:29:58.542Z,99906.91
2022-12-18T02:32:35.326Z,99909.50
2022-12-18T02:35:05.368Z,99916.47
2022-12-18T02:37:35.677Z,99916.50
2022-12-18T02:40:06.407Z,99916.56
2022-12-18T02:42:35.930Z,99918.31
2022-12-18T02:45:05.914Z,99902.72
2022-12-18T02:47:39.310Z,99900.97
2022-12-18T02:50:25.349Z,99901.00
2022-12-18T02:53:17.395Z,99910.44
2022-12-18T02:56:05.324Z,99907.91
2022-12-18T02:58:56.802Z,99904.44
2022-12-18T03:01:58.888Z,99910.53
2022-12-18T03:04:33.270Z,99906.97
2022-12-18T03:07:06.215Z,99919.00
2022-12-18T03:09:37.587Z,99914.72
2022-12-18T03:12:23.663Z,99913.03
2022-12-18T03:15:06.350Z,99913.91
2022-12-18T03:17:34.504Z,99926.88
2022-12-18T03:20:09.471Z,99927.72
2022-12-18T03:22:38.530Z,99931.06
2022-12-18T03:25:09.912Z,99941.47
2022-12-18T03:27:47.375Z,99934.56
2022-12-18T03:30:19.078Z,99930.28
2022-12-18T03:33:00.566Z,99946.72
2022-12-18T03:35:34.410Z,99933.75
2022-12-18T03:38:01.444Z,99941.53
2022-12-18T03:40:42.095Z,99932.84
2022-12-18T03:43:45.911Z,99931.13
2022-12-18T03:46:31.249Z,99938.97
2022-12-18T03:49:10.863Z,99939.84
2022-12-18T03:51:45.921Z,99936.41
2022-12-18T03:54:14.075Z,99938.13
2022-12-18T03:56:54.572Z,99929.41
2022-12-18T03:59:23.359Z,99935.50
2022-12-18T04:01:53.868Z,99946.72
2022-12-18T04:04:23.323Z,99939.78
2022-12-18T04:06:51.411Z,99944.97
2022-12-18T04:09:21.017Z,99946.72
2022-12-18T04:11:48.979Z,99951.88
2022-12-18T04:14:18.261Z,99964.09
2022-12-18T04:16:46.485Z,99971.91
2022-12-18T04:19:16.362Z,99977.94
2022-12-18T04:21:44.876Z,99977.84
2022-12-18T04:24:13.807Z,99981.34
2022-12-18T04:26:47.010Z,99981.38
2022-12-18T04:29:18.703Z,99969.22
2022-12-18T04:31:45.391Z,99977.06
2022-12-18T04:34:12.451Z,99974.31
2022-12-18T04:36:45.467Z,99985.50
2022-12-18T04:39:13.785Z,99981.19
2022-12-18T04:41:42.220Z,99988.09
2022-12-18T04:44:09.495Z,99992.38
2022-12-18T04:46:36.245Z,99985.50
2022-12-18T04:49:03.031Z,99987.25
2022-12-18T04:51:29.718Z,99998.50
2022-12-18T04:53:56.480Z,100002.84
2022-12-18T04:56:23.575Z,100017.50
2022-12-18T04:58:50.500Z,100011.38
2022-12-18T05:01:18.708Z,100012.97
2022-12-18T05:03:46.128Z,100008.59
2022-12-18T05:06:13.014Z,100016.47
2022-12-18T05:08:39.971Z,100015.59
2022-12-18T05:11:10.125Z,100030.31
2022-12-18T05:13:39.020Z,100022.56
2022-12-18T05:16:07.433Z,100038.22
2022-12-18T05:18:34.629Z,100035.53
2022-12-18T05:21:01.610Z,100044.22
2022-12-18T05:23:29.092Z,100041.59
2022-12-18T05:26:01.771Z,100045.88
2022-12-18T05:28:30.822Z,100044.97
2022-12-18T05:31:00.177Z,100048.53
2022-12-18T05:33:29.671Z,100040.81
2022-12-18T05:35:59.708Z,100050.34
2022-12-18T05:38:27.722Z,100044.31
2022-12-18T05:40:54.848Z,100046.84
2022-12-18T05:43:22.862Z,100055.56
2022-12-18T05:45:50.061Z,100052.97
2022-12-18T05:48:17.855Z,100061.69
2022-12-18T05:50:46.763Z,100065.94
2022-12-18T05:53:15.384Z,100065.09
2022-12-18T05:55:43.752Z,100061.59
2022-12-18T05:58:11.695Z,100048.47
2022-12-18T06:00:40.940Z,100062.34
2022-12-18T06:03:09.670Z,100064.81
2022-12-18T06:05:41.843Z,100077.75
2022-12-18T06:08:09.154Z,100075.97
2022-12-18T06:10:35.871Z,100068.22
2022-12-18T06:13:02.722Z,100075.97
2022-12-18T06:15:29.634Z,100080.31
2022-12-18T06:17:56.438Z,100077.69
2022-12-18T06:20:23.366Z,100088.97
2022-12-18T06:22:50.543Z,100095.00
2022-12-18T06:25:17.137Z,100099.31
2022-12-18T06:27:44.263Z,100099.38
2022-12-18T06:30:12.163Z,100108.88
2022-12-18T06:32:39.420Z,100108.84
2022-12-18T06:35:06.662Z,100113.16
2022-12-18T06:37:33.304Z,100113.16
2022-12-18T06:40:00.175Z,100110.59
2022-12-18T06:42:26.866Z,100113.13
2022-12-18T06:44:53.558Z,100113.09
2022-12-18T06:47:20.322Z,100097.25
2022-12-18T06:49:46.990Z,100128.63
2022-12-18T06:52:13.683Z,100127.75
2022-12-18T06:54:40.390Z,100131.22
2022-12-18T06:57:07.148Z,100127.81
2022-12-18T06:59:33.897Z,100133.03
2022-12-18T07:02:00.670Z,100136.47
2022-12-18T07:04:30.899Z,100145.94
2022-12-18T07:06:58.331Z,100125.19
2022-12-18T07:09:26.709Z,100144.28
2022-12-18T07:11:53.779Z,100153.75
2022-12-18T07:14:20.498Z,100153.75
2022-12-18T07:16:48.293Z,100165.09
2022-12-18T07:19:15.540Z,100168.59
2022-12-18T07:21:42.164Z,100165.25
2022-12-18T07:24:08.977Z,100164.47
2022-12-18T07:26:35.680Z,100161.94
2022-12-18T07:29:02.781Z,100161.97
2022-12-18T07:31:29.821Z,100159.38
2022-12-18T07:33:56.691Z,100166.44
2022-12-18T07:36:23.438Z,100168.13
2022-12-18T07:38:51.325Z,100161.16
2022-12-18T07:41:20.021Z,100171.28
2022-12-18T07:43:47.054Z,100178.03
2022-12-18T07:46:15.132Z,100186.59
2022-12-18T07:48:43.779Z,100194.50
2022-12-18T07:51:12.305Z,100197.78
2022-12-18T07:53:40.200Z,100212.38
2022-12-18T07:58:57.490Z,100222.97
2022-12-18T08:01:24.373Z,100206.53
2022-12-18T08:03:52.427Z,100215.22
2022-12-18T08:06:22.764Z,100214.44
2022-12-18T08:08:54.648Z,100216.03
2022-12-18T08:11:21.828Z,100215.09
2022-12-18T08:13:48.571Z,100227.16
2022-12-18T08:16:16.204Z,100216.00
2022-12-18T08:18:42.982Z,100217.09
2022-12-18T08:21:17.863Z,100218.84
2022-12-18T08:23:45.389Z,100242.22
2022-12-18T08:26:13.250Z,100242.91
2022-12-18T08:28:40.935Z,100243.69
2022-12-18T08:31:08.605Z,100253.97
2022-12-18T08:33:37.279Z,100257.41
2022-12-18T08:36:05.215Z,100259.31
2022-12-18T08:38:35.931Z,100253.38
2022-12-18T08:41:05.551Z,100264.47
2022-12-18T08:43:51.085Z,100260.22
2022-12-18T08:46:19.449Z,100259.53
2022-12-18T08:48:46.666Z,100247.47
2022-12-18T08:51:13.559Z,100251.66
2022-12-18T08:53:40.767Z,100261.00
2022-12-18T08:56:08.584Z,100256.78
2022-12-18T08:58:36.024Z,100269.75
2022-12-18T09:01:10.338Z,100252.50
2022-12-18T09:03:38.138Z,100242.97
2022-12-18T09:06:05.975Z,100257.81
2022-12-18T09:08:35.616Z,100215.13
2022-12-18T09:11:03.090Z,100276.56
2022-12-18T09:13:30.341Z,100261.84
2022-12-18T09:15:57.173Z,100271.41
2022-12-18T09:18:25.637Z,100287.63
2022-12-18T09:20:54.122Z,100267.56
2022-12-18T09:23:21.746Z,100292.03
2022-12-18T09:25:49.430Z,100287.13
2022-12-18T09:28:19.336Z,100300.91
2022-12-18T09:30:50.822Z,100299.22
2022-12-18T09:33:18.637Z,100313.09
2022-12-18T09:35:47.013Z,100308.53
2022-12-18T09:38:19.167Z,100309.41
2022-12-18T09:41:00.783Z,100299.28
2022-12-18T09:43:48.035Z,100294.19
2022-12-18T09:46:26.491Z,100302.22
2022-12-18T09:48:58.219Z,100302.22
2022-12-18T09:51:39.833Z,100311.44
2022-12-18T09:54:12.376Z,100316.53
2022-12-18T09:56:44.720Z,100320.09
2022-12-18T09:59:22.377Z,100323.38
2022-12-18T10:01:49.343Z,100322.63
2022-12-18T10:04:16.318Z,100320.03
2022-12-18T10:07:28.311Z,100308.09
2022-12-18T10:10:20.336Z,100296.84
2022-12-18T10:13:05.896Z,100303.66
2022-12-18T10:15:50.315Z,100306.97
2022-12-18T10:18:55.045Z,100296.72
2022-12-18T10:21:29.524Z,100282.94
2022-12-18T10:24:04.336Z,100294.13
2022-12-18T10:26:33.083Z,100287.91
2022-12-18T10:29:05.262Z,100283.72
2022-12-18T10:31:32.547Z,100279.44
2022-12-18T10:33:59.294Z,100276.88
2022-12-18T10:36:26.336Z,100276.00
2022-12-18T10:38:53.104Z,100275.00
2022-12-18T10:41:21.771Z,100272.59
2022-12-18T10:43:49.032Z,100271.63
2022-12-18T10:46:17.911Z,100277.72
2022-12-18T10:48:47.594Z,100279.41
2022-12-18T10:51:34.905Z,100277.78
2022-12-18T10:54:07.740Z,100286.44
2022-12-18T10:56:37.864Z,100299.38
2022-12-18T10:59:10.713Z,100283.13
2022-12-18T11:01:49.454Z,100277.97
2022-12-18T11:04:50.458Z,100288.31
2022-12-18T11:07:17.216Z,100281.47
2022-12-18T11:09:43.892Z,100276.34
2022-12-18T11:12:23.945Z,100281.34
2022-12-18T11:14:59.061Z,100272.78
2022-12-18T11:17:35.851Z,100266.69
2022-12-18T11:20:07.928Z,100283.16
2022-12-18T11:22:37.439Z,100290.06
2022-12-18T11:25:35.667Z,100286.59
2022-12-18T11:28:30.197Z,100279.78
2022-12-18T11:31:18.844Z,100264.28
2022-12-18T11:34:28.654Z,100265.13
2022-12-18T11:36:56.290Z,100258.25
2022-12-18T11:39:46.034Z,100259.22
2022-12-18T11:42:23.854Z,100258.22
2022-12-18T11:45:21.268Z,100263.41
2022-12-18T11:48:20.076Z,100269.44
2022-12-18T11:51:27.075Z,100268.53
2022-12-18T11:53:54.079Z,100263.41
2022-12-18T11:57:05.965Z,100246.09
2022-12-18T12:00:02.461Z,100249.69
2022-12-18T12:03:00.251Z,100242.91
2022-12-18T12:05:36.277Z,100245.50
2022-12-18T12:08:17.072Z,100240.31
2022-12-18T12:11:08.475Z,100234.25
2022-12-18T12:13:51.527Z,100232.50
2022-12-18T12:16:21.078Z,100236.81
2022-12-18T12:19:21.362Z,100241.97
2022-12-18T12:22:03.242Z,100246.22
2022-12-18T12:25:02.197Z,100245.34
2022-12-18T12:27:34.660Z,100241.06
2022-12-18T12:30:23.798Z,100227.97
2022-12-18T12:33:09.322Z,100226.31
2022-12-18T12:35:50.511Z,100222.88
2022-12-18T12:38:24.772Z,100221.97
2022-12-18T12:41:03.376Z,100225.44
2022-12-18T12:46:40.434Z,100209.94
2022-12-18T12:49:40.673Z,100226.38
2022-12-18T12:52:14.969Z,100214.25
2022-12-18T12:54:43.251Z,100216.97
2022-12-18T12:57:27.946Z,100220.38
2022-12-18T13:00:17.788Z,100231.56
2022-12-18T13:03:13.974Z,100231.56
2022-12-18T13:05:49.415Z,100227.22
2022-12-18T13:08:31.677Z,100231.66
2022-12-18T13:11:20.910Z,100223.91
2022-12-18T13:13:55.400Z,100236.94
2022-12-18T13:16:28.690Z,100226.63
2022-12-18T13:19:00.663Z,100228.41
2022-12-18T13:21:34.623Z,100239.66
2022-12-18T13:24:24.756Z,100243.16
2022-12-18T13:26:52.162Z,100225.91
2022-12-18T13:29:48.436Z,100237.28
2022-12-18T13:32:26.404Z,100232.13
2022-12-18T13:35:19.070Z,100251.31
2022-12-18T13:37:55.259Z,100240.13
2022-12-18T13:40:50.951Z,100248.91
2022-12-18T13:43:20.680Z,100242.94
2022-12-18T13:46:07.673Z,100247.31
2022-12-18T13:48:39.048Z,100255.16
2022-12-18T13:51:11.977Z,100250.81
2022-12-18T13:53:50.674Z,100257.81
2022-12-18T13:56:25.621Z,100263.84
2022-12-18T13:59:19.407Z,100269.91
2022-12-18T14:01:51.977Z,100270.78
2022-12-18T14:04:28.854Z,100266.47
2022-12-18T14:07:33.042Z,100263.06
2022-12-18T14:10:41.911Z,100273.50
2022-12-18T14:13:11.739Z,100272.53
2022-12-18T14:15:45.358Z,100275.22
2022-12-18T14:18:18.125Z,100272.59
2022-12-18T14:20:52.686Z,100271.72
2022-12-18T14:23:41.306Z,100282.06
2022-12-18T14:26:40.528Z,100276.78
2022-12-18T14:29:31.075Z,100271.53
2022-12-18T14:32:19.344Z,100277.53
2022-12-18T14:34:52.925Z,100279.38
2022-12-18T14:37:24.426Z,100292.34
2022-12-18T14:40:00.125Z,100285.41
2022-12-18T14:42:29.601Z,100276.69
2022-12-18T14:45:39.182Z,100291.50
2022-12-18T14:48:23.193Z,100287.19
2022-12-18T14:51:03.404Z,100299.28
2022-12-18T14:53:39.320Z,100294.97
2022-12-18T14:56:26.773Z,100295.81
2022-12-18T14:58:59.271Z,100299.28
2022-12-18T15:01:39.359Z,100296.75
2022-12-18T15:04:23.688Z,100303.72
2022-12-18T15:07:20.127Z,100296.75
2022-12-18T15:10:02.200Z,100307.25
2022-12-18T15:12:37.924Z,100301.16
2022-12-18T15:15:06.264Z,100302.91
2022-12-18T15:17:32.987Z,100309.84
2022-12-18T15:20:10.666Z,100309.84
2022-12-18T15:22:38.342Z,100318.50
2022-12-18T15:25:27.586Z,100321.94
2022-12-18T15:27:54.435Z,100303.72
2022-12-18T15:30:26.001Z,100315.03
2022-12-18T15:33:07.552Z,100315.00
2022-12-18T15:35:34.364Z,100313.31
2022-12-18T15:38:01.108Z,100308.97
2022-12-18T15:40:27.913Z,100295.97
2022-12-18T15:43:15.059Z,100289.84
2022-12-18T15:45:42.636Z,100304.63
2022-12-18T15:48:22.993Z,100314.19
2022-12-18T15:50:52.062Z,100315.91
2022-12-18T15:53:18.920Z,100316.78
2022-12-18T15:56:04.592Z,100322.88
2022-12-18T15:58:31.655Z,100324.53
2022-12-18T16:01:00.559Z,100337.59
2022-12-18T16:03:27.854Z,100341.91
2022-12-18T16:05:54.971Z,100347.09
2022-12-18T16:08:23.704Z,100346.19
2022-12-18T16:10:50.568Z,100336.69
2022-12-18T16:13:20.250Z,100327.06
2022-12-18T16:15:47.540Z,100342.66
2022-12-18T16:18:14.376Z,100335.66
2022-12-18T16:20:41.672Z,100339.19
2022-12-18T16:23:08.225Z,100342.72
2022-12-18T16:25:35.043Z,100342.72
2022-12-18T16:28:01.984Z,100326.16
2022-12-18T16:30:32.750Z,100360.91
2022-12-18T16:33:07.463Z,100353.91
2022-12-18T16:35:35.643Z,100356.47
2022-12-18T16:38:02.363Z,100347.75
2022-12-18T16:40:29.273Z,100348.59
2022-12-18T16:42:56.042Z,100346.78
2022-12-18T16:45:24.181Z,100339.75
2022-12-18T16:47:51.067Z,100344.97
2022-12-18T16:50:17.951Z,100344.06
2022-12-18T16:52:46.001Z,100344.84
2022-12-18T16:55:12.765Z,100344.00
2022-12-18T16:57:42.004Z,100340.53
2022-12-18T17:00:11.151Z,100337.94
2022-12-18T17:02:38.205Z,100342.16
2022-12-18T17:05:05.195Z,100343.88
2022-12-18T17:07:32.226Z,100334.31
2022-12-18T17:09:59.213Z,100348.25
2022-12-18T17:12:28.756Z,100346.50
2022-12-18T17:14:55.620Z,100354.28
2022-12-18T17:17:23.542Z,100353.44
2022-12-18T17:19:52.248Z,100355.13
2022-12-18T17:22:21.231Z,100354.22
2022-12-18T17:24:49.320Z,100356.00
2022-12-18T17:27:16.201Z,100349.91
2022-12-18T17:29:48.268Z,100350.81
2022-12-18T17:32:16.822Z,100348.16
2022-12-18T17:34:44.181Z,100322.84
2022-12-18T17:37:11.425Z,100364.56
2022-12-18T17:39:39.123Z,100371.41
2022-12-18T17:42:09.523Z,100355.78
2022-12-18T17:44:44.893Z,100367.03
2022-12-18T17:47:13.374Z,100363.59
2022-12-18T17:49:44.331Z,100369.66
2022-12-18T17:52:12.797Z,100357.53
2022-12-18T17:54:45.955Z,100362.75
2022-12-18T17:57:14.711Z,100364.47
2022-12-18T17:59:41.600Z,100373.16
2022-12-18T18:02:12.002Z,100360.94
2022-12-18T18:04:39.030Z,100357.41
2022-12-18T18:07:05.880Z,100337.38
2022-12-18T18:09:32.770Z,100354.84
2022-12-18T18:12:18.057Z,100360.91
2022-12-18T18:14:44.819Z,100366.06
2022-12-18T18:17:11.836Z,100364.34
2022-12-18T18:19:39.380Z,100365.25
2022-12-18T18:22:07.079Z,100380.84
2022-12-18T18:24:34.236Z,100389.53
2022-12-18T18:27:00.904Z,100387.78
2022-12-18T18:29:30.558Z,100387.69
2022-12-18T18:31:58.078Z,100400.78
2022-12-18T18:34:27.819Z,100386.00
2022-12-18T18:36:54.659Z,100376.34
2022-12-18T18:39:22.061Z,100367.66
2022-12-18T18:41:49.694Z,100404.09
2022-12-18T18:44:18.765Z,100398.03
2022-12-18T18:46:45.751Z,100384.13
2022-12-18T18:49:14.094Z,100390.28
2022-12-18T18:51:42.839Z,100385.84
2022-12-18T18:54:10.544Z,100401.44
2022-12-18T18:57:04.019Z,100390.22
2022-12-18T18:59:31.587Z,100378.88
2022-12-18T19:02:04.571Z,100391.03
2022-12-18T19:04:33.419Z,100383.25
2022-12-18T19:07:01.725Z,100387.53
2022-12-18T19:09:29.518Z,100394.47
2022-12-18T19:12:15.492Z,100398.84
2022-12-18T19:14:42.711Z,100390.06
2022-12-18T19:17:10.786Z,100398.69
2022-12-18T19:19:37.887Z,100405.69
2022-12-18T19:22:07.638Z,100406.50
2022-12-18T19:24:35.630Z,100416.09
2022-12-18T19:27:02.283Z,100403.00
2022-12-18T19:29:29.047Z,100406.53
2022-12-18T19:31:56.124Z,100405.59
2022-12-18T19:34:22.895Z,100397.72
2022-12-18T19:36:50.776Z,100413.44
2022-12-18T19:39:19.801Z,100416.84
2022-12-18T19:41:46.886Z,100419.41
2022-12-18T19:44:16.214Z,100420.31
2022-12-18T19:46:44.000Z,100416.84
2022-12-18T19:49:17.554Z,100425.44
2022-12-18T19:51:45.039Z,100431.47
2022-12-18T19:54:16.384Z,100421.97
2022-12-18T19:56:44.199Z,100422.88
2022-12-18T19:59:11.176Z,100400.94
2022-12-18T20:01:38.713Z,100417.47
2022-12-18T20:04:06.436Z,100424.44
2022-12-18T20:06:46.377Z,100435.69
2022-12-18T20:09:13.896Z,100420.16
2022-12-18T20:11:41.833Z,100412.28
2022-12-18T20:14:14.906Z,100437.47
2022-12-18T20:16:47.665Z,100424.47
2022-12-18T20:19:16.718Z,100440.97
2022-12-18T20:21:46.868Z,100424.47
2022-12-18T20:24:13.784Z,100432.19
2022-12-18T20:26:40.739Z,100456.59
2022-12-18T20:29:09.183Z,100457.44
2022-12-18T20:31:36.261Z,100447.84
2022-12-18T20:34:04.962Z,100445.25
2022-12-18T20:36:36.228Z,100454.06
2022-12-18T20:39:06.504Z,100463.59
2022-12-18T20:41:37.859Z,100446.31
2022-12-18T20:44:10.276Z,100450.72
2022-12-18T20:46:54.184Z,100451.69
2022-12-18T20:49:21.073Z,100459.50
2022-12-18T20:51:51.953Z,100424.75
2022-12-18T20:54:18.749Z,100439.63
2022-12-18T20:56:47.460Z,100444.84
2022-12-18T20:59:14.908Z,100427.28
2022-12-18T21:01:45.255Z,100443.81
2022-12-18T21:04:18.907Z,100446.31
2022-12-18T21:06:54.114Z,100441.13
2022-12-18T21:09:24.671Z,100423.66
2022-12-18T21:12:13.188Z,100446.34
2022-12-18T21:14:42.185Z,100416.66
2022-12-18T21:17:09.156Z,100430.56
2022-12-18T21:19:36.266Z,100438.38
2022-12-18T21:22:03.663Z,100427.91
2022-12-18T21:24:32.544Z,100435.81
2022-12-18T21:27:02.005Z,100445.38
2022-12-18T21:29:28.891Z,100442.78
2022-12-18T21:31:56.031Z,100434.03
2022-12-18T21:34:28.497Z,100442.72
2022-12-18T21:36:57.820Z,100446.19
2022-12-18T21:39:27.343Z,100444.47
2022-12-18T21:42:12.870Z,100436.69
2022-12-18T21:44:42.316Z,100444.47
2022-12-18T21:47:21.908Z,100439.28
2022-12-18T21:49:51.992Z,100435.03
2022-12-18T21:52:19.510Z,100416.81
2022-12-18T21:54:48.248Z,100423.78
2022-12-18T21:57:15.026Z,100426.41
2022-12-18T21:59:43.643Z,100428.06
2022-12-18T22:02:15.385Z,100421.97
2022-12-18T22:04:43.592Z,100417.59
2022-12-18T22:07:11.352Z,100399.19
2022-12-18T22:09:38.342Z,100419.25
2022-12-18T22:12:05.964Z,100414.88
2022-12-18T22:14:32.815Z,100419.19
2022-12-18T22:16:59.623Z,100406.13
2022-12-18T22:19:27.094Z,100412.19
2022-12-18T22:21:54.631Z,100407.88
2022-12-18T22:24:26.259Z,100422.63
2022-12-18T22:26:59.548Z,100395.59
2022-12-18T22:29:47.536Z,100416.44
2022-12-18T22:32:16.987Z,100411.94
2022-12-18T22:34:48.232Z,100392.69
2022-12-18T22:37:14.915Z,100406.63
2022-12-18T22:39:41.650Z,100412.75
2022-12-18T22:42:08.908Z,100398.00
2022-12-18T22:44:35.592Z,100406.66
2022-12-18T22:47:07.006Z,100389.28
2022-12-18T22:49:35.715Z,100372.66
2022-12-18T22:52:09.357Z,100393.59
2022-12-18T22:54:36.365Z,100392.66
2022-12-18T22:57:03.155Z,100410.06
2022-12-18T22:59:29.974Z,100401.25
2022-12-18T23:01:58.496Z,100407.34
2022-12-18T23:04:30.164Z,100404.72
2022-12-18T23:07:03.016Z,100406.44
2022-12-18T23:09:29.776Z,100402.09
2022-12-18T23:11:56.520Z,100409.13
2022-12-18T23:14:23.213Z,100403.84
2022-12-18T23:16:50.026Z,100405.53
2022-12-18T23:19:19.080Z,100379.25
2022-12-18T23:21:45.758Z,100406.34
2022-12-18T23:24:12.489Z,100408.13
2022-12-18T23:26:39.281Z,100397.59
2022-12-18T23:29:06.198Z,100413.25
2022-12-18T23:31:36.013Z,100401.16
2022-12-18T23:34:04.950Z,100412.44
2022-12-18T23:36:34.007Z,100402.06
2022-12-18T23:39:15.309Z,100393.41
2022-12-18T23:41:53.775Z,100394.25
2022-12-18T23:44:20.474Z,100389.88
2022-12-18T23:46:47.205Z,100393.28
2022-12-18T23:49:14.023Z,100388.00
2022-12-18T23:51:40.711Z,100378.44
2022-12-18T23:54:09.016Z,100389.81
2022-12-18T23:56:35.845Z,100379.50
2022-12-18T23:59:02.528Z,100366.38
